createdAt,value
2018-03-19T00:00:51.693Z,0
2018-03-19T00:01:52.194Z,0
2018-03-19T00:02:51.651Z,0
2018-03-19T00:03:51.906Z,0
2018-03-19T00:04:51.889Z,0
2018-03-19T00:05:52.154Z,0
2018-03-19T00:06:51.841Z,0
2018-03-19T00:07:52.080Z,0
2018-03-19T00:08:52.070Z,0
2018-03-19T00:09:51.539Z,0
2018-03-19T00:10:52.025Z,0
2018-03-19T00:11:52.021Z,0
2018-03-19T00:12:51.736Z,0
2018-03-19T00:13:51.719Z,0
2018-03-19T00:14:51.956Z,0
2018-03-19T00:15:51.941Z,0
2018-03-19T00:16:51.907Z,0
2018-03-19T00:17:51.900Z,0
2018-03-19T00:18:51.877Z,0
2018-03-19T00:19:51.860Z,0
2018-03-19T00:20:51.836Z,0
2018-03-19T00:21:51.563Z,0
2018-03-19T00:22:51.803Z,0
2018-03-19T00:23:51.542Z,0
2018-03-19T00:24:51.510Z,0
2018-03-19T00:25:51.757Z,0
2018-03-19T00:26:51.485Z,0
2018-03-19T00:27:51.768Z,0
2018-03-19T00:28:51.706Z,0
2018-03-19T00:29:51.681Z,0
2018-03-19T00:30:51.660Z,0
2018-03-19T00:31:51.635Z,0
2018-03-19T00:32:51.375Z,0
2018-03-19T00:33:51.598Z,0
2018-03-19T00:34:51.587Z,0
2018-03-19T00:35:51.306Z,0
2018-03-19T00:36:51.550Z,0
2018-03-19T00:37:51.524Z,0
2018-03-19T00:38:51.530Z,0
2018-03-19T00:39:51.495Z,0
2018-03-19T00:40:51.473Z,0
2018-03-19T00:41:51.462Z,0
2018-03-19T00:42:51.428Z,0
2018-03-19T00:43:51.432Z,0
2018-03-19T00:44:51.146Z,0
2018-03-19T00:45:51.393Z,0
2018-03-19T00:46:51.357Z,0
2018-03-19T00:47:51.337Z,0
2018-03-19T00:48:50.811Z,0
2018-03-19T00:49:51.300Z,0
2018-03-19T00:50:51.291Z,0
2018-03-19T00:51:51.268Z,0
2018-03-19T00:52:51.254Z,0
2018-03-19T00:53:51.236Z,0
2018-03-19T00:54:51.211Z,0
2018-03-19T00:55:50.945Z,0
2018-03-19T00:56:50.915Z,0
2018-03-19T00:57:51.156Z,0
2018-03-19T00:58:50.882Z,0
2018-03-19T00:59:51.117Z,0
2018-03-19T01:00:51.106Z,0
2018-03-19T01:01:50.831Z,0
2018-03-19T01:02:50.806Z,0
2018-03-19T01:03:51.052Z,0
2018-03-19T01:04:51.021Z,0
2018-03-19T01:05:51.020Z,0
2018-03-19T01:06:50.989Z,0
2018-03-19T01:07:50.459Z,0
2018-03-19T01:08:50.692Z,0
2018-03-19T01:09:50.675Z,0
2018-03-19T01:10:50.917Z,0
2018-03-19T01:11:50.893Z,0
2018-03-19T01:12:50.882Z,0
2018-03-19T01:13:50.604Z,0
2018-03-19T01:14:50.845Z,0
2018-03-19T01:15:50.823Z,0
2018-03-19T01:16:50.803Z,0
2018-03-19T01:17:50.530Z,0
2018-03-19T01:18:50.787Z,0
2018-03-19T01:19:50.752Z,0
2018-03-19T01:20:50.725Z,0
2018-03-19T01:21:50.705Z,0
2018-03-19T01:22:50.437Z,0
2018-03-19T01:23:50.673Z,0
2018-03-19T01:24:50.669Z,0
2018-03-19T01:25:50.637Z,0
2018-03-19T01:26:50.637Z,0
2018-03-19T01:27:50.598Z,0
2018-03-19T01:28:50.328Z,0
2018-03-19T01:29:50.563Z,0
2018-03-19T01:30:50.562Z,0
2018-03-19T01:31:50.525Z,0
2018-03-19T01:32:50.509Z,0
2018-03-19T01:33:50.235Z,0
2018-03-19T01:34:50.473Z,0
2018-03-19T01:35:50.193Z,0
2018-03-19T01:36:50.179Z,0
2018-03-19T01:37:50.419Z,0
2018-03-19T01:38:50.387Z,0
2018-03-19T01:39:50.373Z,0
2018-03-19T01:40:50.365Z,0
2018-03-19T01:41:50.338Z,0
2018-03-19T01:42:50.319Z,0
2018-03-19T01:43:50.301Z,0
2018-03-19T01:44:50.284Z,0
2018-03-19T01:45:50.269Z,0
2018-03-19T01:46:50.242Z,0
2018-03-19T01:47:50.241Z,0
2018-03-19T01:48:50.214Z,0
2018-03-19T01:49:50.185Z,0
2018-03-19T01:50:50.169Z,0
2018-03-19T01:51:49.894Z,0
2018-03-19T01:52:50.135Z,0
2018-03-19T01:53:50.110Z,0
2018-03-19T01:54:50.098Z,0
2018-03-19T01:55:50.082Z,0
2018-03-19T01:56:49.799Z,0
2018-03-19T01:57:49.788Z,0
2018-03-19T01:58:50.026Z,0
2018-03-19T01:59:50.007Z,0
2018-03-19T02:00:49.979Z,0
2018-03-19T02:01:49.959Z,0
2018-03-19T02:02:49.957Z,0
2018-03-19T02:03:49.927Z,0
2018-03-19T02:04:49.651Z,0
2018-03-19T02:05:49.629Z,0
2018-03-19T02:06:49.627Z,0
2018-03-19T02:07:49.852Z,0
2018-03-19T02:08:49.832Z,0
2018-03-19T02:09:49.812Z,0
2018-03-19T02:10:49.808Z,0
2018-03-19T02:11:49.774Z,0
2018-03-19T02:12:49.759Z,0
2018-03-19T02:13:49.746Z,0
2018-03-19T02:14:49.468Z,0
2018-03-19T02:15:49.697Z,0
2018-03-19T02:16:49.425Z,0
2018-03-19T02:17:49.661Z,0
2018-03-19T02:18:49.641Z,0
2018-03-19T02:19:49.627Z,0
2018-03-19T02:20:49.607Z,0
2018-03-19T02:21:49.590Z,0
2018-03-19T02:22:49.571Z,0
2018-03-19T02:23:49.297Z,0
2018-03-19T02:24:49.522Z,0
2018-03-19T02:25:49.512Z,0
2018-03-19T02:26:49.491Z,0
2018-03-19T02:27:49.473Z,0
2018-03-19T02:28:49.202Z,0
2018-03-19T02:29:49.180Z,0
2018-03-19T02:30:49.426Z,0
2018-03-19T02:31:49.401Z,0
2018-03-19T02:32:49.394Z,0
2018-03-19T02:33:49.121Z,0
2018-03-19T02:34:49.343Z,0
2018-03-19T02:35:49.335Z,0
2018-03-19T02:36:49.313Z,0
2018-03-19T02:37:49.288Z,0
2018-03-19T02:38:49.269Z,0
2018-03-19T02:39:48.990Z,0
2018-03-19T02:40:49.243Z,0
2018-03-19T02:41:49.243Z,0
2018-03-19T02:42:49.191Z,0
2018-03-19T02:43:48.954Z,0
2018-03-19T02:44:49.149Z,0
2018-03-19T02:45:49.128Z,0
2018-03-19T02:46:49.120Z,0
2018-03-19T02:47:49.103Z,0
2018-03-19T02:48:49.089Z,0
2018-03-19T02:49:49.055Z,0
2018-03-19T02:50:48.774Z,0
2018-03-19T02:51:48.811Z,0
2018-03-19T02:52:48.997Z,0
2018-03-19T02:53:48.471Z,0
2018-03-19T02:54:48.956Z,0
2018-03-19T02:55:48.960Z,0
2018-03-19T02:56:48.919Z,0
2018-03-19T02:57:48.651Z,0
2018-03-19T02:58:48.890Z,0
2018-03-19T02:59:48.865Z,0
2018-03-19T03:00:48.840Z,0
2018-03-19T03:01:48.576Z,0
2018-03-19T03:02:48.811Z,0
2018-03-19T03:03:48.797Z,0
2018-03-19T03:04:48.767Z,0
2018-03-19T03:05:48.760Z,0
2018-03-19T03:06:48.734Z,4
2018-03-19T03:07:48.708Z,4
2018-03-19T03:08:48.434Z,4
2018-03-19T03:09:48.414Z,4
2018-03-19T03:10:48.653Z,4
2018-03-19T03:11:48.622Z,4
2018-03-19T03:12:48.354Z,0
2018-03-19T03:13:48.591Z,0
2018-03-19T03:14:48.569Z,0
2018-03-19T03:15:48.562Z,0
2018-03-19T03:16:48.531Z,0
2018-03-19T03:17:48.259Z,0
2018-03-19T03:18:48.487Z,0
2018-03-19T03:19:48.473Z,0
2018-03-19T03:20:48.457Z,0
2018-03-19T03:21:48.449Z,0
2018-03-19T03:22:48.415Z,0
2018-03-19T03:23:48.391Z,0
2018-03-19T03:24:48.376Z,0
2018-03-19T03:25:48.356Z,0
2018-03-19T03:26:48.333Z,0
2018-03-19T03:27:48.058Z,0
2018-03-19T03:28:48.294Z,0
2018-03-19T03:29:48.273Z,0
2018-03-19T03:30:48.266Z,0
2018-03-19T03:31:48.259Z,0
2018-03-19T03:32:48.217Z,0
2018-03-19T03:33:48.200Z,0
2018-03-19T03:34:48.181Z,0
2018-03-19T03:35:48.165Z,0
2018-03-19T03:36:48.138Z,0
2018-03-19T03:37:48.124Z,0
2018-03-19T03:38:48.095Z,0
2018-03-19T03:39:48.084Z,0
2018-03-19T03:40:48.061Z,0
2018-03-19T03:41:48.047Z,0
2018-03-19T03:42:48.026Z,0
2018-03-19T03:43:47.752Z,0
2018-03-19T03:44:47.992Z,0
2018-03-19T03:45:47.962Z,0
2018-03-19T03:46:47.951Z,0
2018-03-19T03:47:47.935Z,0
2018-03-19T03:48:47.697Z,0
2018-03-19T03:49:47.882Z,0
2018-03-19T03:50:47.868Z,0
2018-03-19T03:51:47.857Z,0
2018-03-19T03:52:47.830Z,0
2018-03-19T03:53:47.603Z,0
2018-03-19T03:54:47.532Z,0
2018-03-19T03:55:47.817Z,0
2018-03-19T03:56:47.749Z,0
2018-03-19T03:57:47.743Z,0
2018-03-19T03:58:47.705Z,0
2018-03-19T03:59:47.692Z,0
2018-03-19T04:00:47.669Z,0
2018-03-19T04:01:47.653Z,0
2018-03-19T04:02:47.639Z,0
2018-03-19T04:03:47.615Z,0
2018-03-19T04:04:47.591Z,0
2018-03-19T04:05:47.581Z,0
2018-03-19T04:06:47.554Z,0
2018-03-19T04:07:47.274Z,0
2018-03-19T04:08:47.509Z,0
2018-03-19T04:09:47.504Z,0
2018-03-19T04:10:47.484Z,0
2018-03-19T04:11:47.456Z,0
2018-03-19T04:12:47.178Z,0
2018-03-19T04:13:47.407Z,0
2018-03-19T04:14:47.140Z,0
2018-03-19T04:15:47.374Z,0
2018-03-19T04:16:47.103Z,0
2018-03-19T04:17:47.447Z,0
2018-03-19T04:18:47.320Z,0
2018-03-19T04:19:47.315Z,0
2018-03-19T04:20:47.272Z,0
2018-03-19T04:21:47.262Z,0
2018-03-19T04:22:47.490Z,0
2018-03-19T04:23:47.213Z,0
2018-03-19T04:24:47.195Z,0
2018-03-19T04:25:47.191Z,0
2018-03-19T04:26:47.164Z,0
2018-03-19T04:27:46.890Z,0
2018-03-19T04:28:47.123Z,0
2018-03-19T04:29:47.113Z,0
2018-03-19T04:30:47.080Z,0
2018-03-19T04:31:47.090Z,0
2018-03-19T04:32:46.793Z,0
2018-03-19T04:33:47.034Z,0
2018-03-19T04:34:47.000Z,0
2018-03-19T04:35:46.987Z,4
2018-03-19T04:36:46.715Z,4
2018-03-19T04:37:46.962Z,0
2018-03-19T04:38:46.927Z,4
2018-03-19T04:39:46.910Z,4
2018-03-19T04:40:46.888Z,4
2018-03-19T04:41:46.610Z,4
2018-03-19T04:42:46.844Z,4
2018-03-19T04:43:46.824Z,4
2018-03-19T04:44:46.816Z,8
2018-03-19T04:45:46.794Z,8
2018-03-19T04:46:46.770Z,8
2018-03-19T04:47:46.743Z,16
2018-03-19T04:48:46.473Z,16
2018-03-19T04:49:46.712Z,16
2018-03-19T04:50:46.687Z,20
2018-03-19T04:51:46.669Z,28
2018-03-19T04:52:46.653Z,28
2018-03-19T04:53:46.637Z,36
2018-03-19T04:54:46.622Z,44
2018-03-19T04:55:46.596Z,52
2018-03-19T04:56:46.319Z,56
2018-03-19T04:57:46.582Z,68
2018-03-19T04:58:46.296Z,80
2018-03-19T04:59:46.521Z,92
2018-03-19T05:00:46.504Z,104
2018-03-19T05:01:46.473Z,120
2018-03-19T05:02:46.453Z,136
2018-03-19T05:03:46.432Z,152
2018-03-19T05:04:46.430Z,172
2018-03-19T05:05:46.397Z,200
2018-03-19T05:06:46.381Z,224
2018-03-19T05:07:46.362Z,252
2018-03-19T05:08:46.338Z,280
2018-03-19T05:09:46.059Z,308
2018-03-19T05:10:46.344Z,340
2018-03-19T05:11:46.279Z,372
2018-03-19T05:12:45.999Z,412
2018-03-19T05:13:46.232Z,452
2018-03-19T05:14:46.224Z,488
2018-03-19T05:15:46.204Z,532
2018-03-19T05:16:45.923Z,576
2018-03-19T05:17:46.289Z,620
2018-03-19T05:18:46.140Z,672
2018-03-19T05:19:45.865Z,720
2018-03-19T05:20:46.094Z,776
2018-03-19T05:21:46.082Z,828
2018-03-19T05:22:45.803Z,884
2018-03-19T05:23:46.044Z,940
2018-03-19T05:24:46.032Z,1004
2018-03-19T05:25:45.996Z,1064
2018-03-19T05:26:45.980Z,1128
2018-03-19T05:27:45.974Z,1192
2018-03-19T05:28:45.945Z,1256
2018-03-19T05:29:45.920Z,1324
2018-03-19T05:30:45.908Z,1396
2018-03-19T05:31:45.888Z,1492
2018-03-19T05:32:45.861Z,1624
2018-03-19T05:33:45.587Z,1796
2018-03-19T05:34:45.829Z,1960
2018-03-19T05:35:45.546Z,2136
2018-03-19T05:36:45.785Z,2296
2018-03-19T05:37:45.770Z,2424
2018-03-19T05:38:45.877Z,2572
2018-03-19T05:39:45.736Z,2708
2018-03-19T05:40:45.454Z,2828
2018-03-19T05:41:45.731Z,2948
2018-03-19T05:42:45.675Z,3040
2018-03-19T05:43:45.648Z,3184
2018-03-19T05:44:45.627Z,3424
2018-03-19T05:45:45.611Z,3672
2018-03-19T05:46:45.332Z,3824
2018-03-19T05:47:45.316Z,3852
2018-03-19T05:48:45.554Z,4008
2018-03-19T05:49:45.555Z,4204
2018-03-19T05:50:45.523Z,4352
2018-03-19T05:51:45.505Z,4568
2018-03-19T05:52:45.502Z,4724
2018-03-19T05:53:45.513Z,5004
2018-03-19T05:54:45.485Z,5040
2018-03-19T05:55:45.438Z,5056
2018-03-19T05:56:45.682Z,5284
2018-03-19T05:57:45.392Z,5604
2018-03-19T05:58:45.123Z,5904
2018-03-19T05:59:45.368Z,6132
2018-03-19T06:00:45.351Z,6432
2018-03-19T06:01:45.342Z,6696
2018-03-19T06:02:45.435Z,6656
2018-03-19T06:03:45.041Z,6740
2018-03-19T06:04:45.280Z,6924
2018-03-19T06:05:45.265Z,7196
2018-03-19T06:06:44.995Z,7444
2018-03-19T06:07:45.249Z,7516
2018-03-19T06:08:45.224Z,7728
2018-03-19T06:09:45.211Z,8164
2018-03-19T06:10:44.935Z,8340
2018-03-19T06:11:44.664Z,8268
2018-03-19T06:12:45.157Z,8388
2018-03-19T06:13:44.912Z,8356
2018-03-19T06:14:45.130Z,8320
2018-03-19T06:15:44.869Z,8708
2018-03-19T06:16:44.593Z,9064
2018-03-19T06:17:44.325Z,9280
2018-03-19T06:18:45.075Z,9504
2018-03-19T06:19:45.082Z,9768
2018-03-19T06:20:45.100Z,9864
2018-03-19T06:21:44.781Z,9796
2018-03-19T06:22:44.783Z,10216
2018-03-19T06:23:45.014Z,10392
2018-03-19T06:24:44.740Z,10508
2018-03-19T06:25:44.988Z,10740
2018-03-19T06:26:44.721Z,11020
2018-03-19T06:27:44.964Z,11456
2018-03-19T06:28:44.696Z,12288
2018-03-19T06:29:44.674Z,12864
2018-03-19T06:30:44.668Z,12640
2018-03-19T06:31:44.906Z,12544
2018-03-19T06:32:44.900Z,13152
2018-03-19T06:33:44.990Z,14112
2018-03-19T06:34:44.872Z,14304
2018-03-19T06:35:44.869Z,14432
2018-03-19T06:36:44.846Z,14944
2018-03-19T06:37:44.847Z,15584
2018-03-19T06:38:44.826Z,15136
2018-03-19T06:39:44.817Z,14656
2018-03-19T06:40:44.807Z,15296
2018-03-19T06:41:44.541Z,15776
2018-03-19T06:42:44.779Z,15744
2018-03-19T06:43:44.510Z,16160
2018-03-19T06:44:44.824Z,16192
2018-03-19T06:45:44.747Z,16608
2018-03-19T06:46:44.739Z,17504
2018-03-19T06:47:44.742Z,17760
2018-03-19T06:48:44.715Z,18144
2018-03-19T06:49:44.453Z,18528
2018-03-19T06:50:44.696Z,19104
2018-03-19T06:51:44.689Z,19104
2018-03-19T06:52:44.676Z,19008
2018-03-19T06:53:44.662Z,19712
2018-03-19T06:54:44.658Z,19968
2018-03-19T06:55:44.654Z,19168
2018-03-19T06:56:44.651Z,18400
2018-03-19T06:57:44.678Z,18816
2018-03-19T06:58:44.622Z,19456
2018-03-19T06:59:44.612Z,19616
2018-03-19T07:00:44.606Z,20128
2018-03-19T07:01:44.349Z,20608
2018-03-19T07:02:44.595Z,21568
2018-03-19T07:03:44.585Z,22016
2018-03-19T07:04:44.589Z,22432
2018-03-19T07:05:44.313Z,23104
2018-03-19T07:06:44.558Z,23808
2018-03-19T07:07:44.548Z,23776
2018-03-19T07:08:44.606Z,24000
2018-03-19T07:09:44.545Z,23776
2018-03-19T07:10:44.528Z,24192
2018-03-19T07:11:44.535Z,25152
2018-03-19T07:12:44.264Z,25344
2018-03-19T07:13:43.994Z,25088
2018-03-19T07:14:44.501Z,25504
2018-03-19T07:15:44.507Z,25600
2018-03-19T07:16:44.479Z,27936
2018-03-19T07:17:44.477Z,32864
2018-03-19T07:18:44.479Z,34976
2018-03-19T07:19:44.467Z,35872
2018-03-19T07:20:44.448Z,37088
2018-03-19T07:21:44.193Z,37408
2018-03-19T07:22:44.495Z,36960
2018-03-19T07:23:44.180Z,37984
2018-03-19T07:24:44.461Z,39264
2018-03-19T07:25:44.438Z,39904
2018-03-19T07:26:44.163Z,39520
2018-03-19T07:27:44.439Z,38400
2018-03-19T07:28:44.603Z,39360
2018-03-19T07:29:44.389Z,41248
2018-03-19T07:30:44.155Z,43232
2018-03-19T07:31:44.384Z,42720
2018-03-19T07:32:44.382Z,41568
2018-03-19T07:33:44.366Z,42048
2018-03-19T07:34:45.163Z,41728
2018-03-19T07:35:44.365Z,42208
2018-03-19T07:36:44.617Z,42656
2018-03-19T07:37:44.345Z,40256
2018-03-19T07:38:44.339Z,33216
2018-03-19T07:39:44.104Z,30784
2018-03-19T07:40:44.365Z,31360
2018-03-19T07:41:44.347Z,31328
2018-03-19T07:42:44.332Z,31904
2018-03-19T07:43:44.317Z,33024
2018-03-19T07:44:44.312Z,33184
2018-03-19T07:45:44.314Z,32512
2018-03-19T07:46:44.469Z,33760
2018-03-19T07:47:44.035Z,35712
2018-03-19T07:48:44.364Z,34784
2018-03-19T07:49:44.285Z,34208
2018-03-19T07:50:44.018Z,35072
2018-03-19T07:51:44.307Z,35232
2018-03-19T07:52:44.259Z,34752
2018-03-19T07:53:44.254Z,35456
2018-03-19T07:54:44.004Z,35616
2018-03-19T07:55:44.274Z,36416
2018-03-19T07:56:44.235Z,36000
2018-03-19T07:57:43.979Z,33696
2018-03-19T07:58:44.218Z,32736
2018-03-19T07:59:43.963Z,35424
2018-03-19T08:00:43.949Z,36384
2018-03-19T08:01:44.221Z,35424
2018-03-19T08:02:44.191Z,35168
2018-03-19T08:03:44.187Z,36416
2018-03-19T08:04:43.920Z,36768
2018-03-19T08:05:44.509Z,36992
2018-03-19T08:06:44.175Z,37472
2018-03-19T08:07:43.906Z,38656
2018-03-19T08:08:43.896Z,38176
2018-03-19T08:09:43.653Z,35776
2018-03-19T08:10:43.880Z,29824
2018-03-19T08:11:44.133Z,14772
2018-03-19T08:12:43.866Z,5888
2018-03-19T08:13:44.141Z,5696
2018-03-19T08:14:44.132Z,5656
2018-03-19T08:15:44.116Z,5684
2018-03-19T08:16:44.087Z,5688
2018-03-19T08:17:44.085Z,5688
2018-03-19T08:18:44.243Z,5708
2018-03-19T08:19:44.094Z,5736
2018-03-19T08:20:44.052Z,5700
2018-03-19T08:21:43.812Z,5680
2018-03-19T08:22:44.053Z,5712
2018-03-19T08:23:44.027Z,5696
2018-03-19T08:24:44.022Z,5688
2018-03-19T08:25:44.083Z,5684
2018-03-19T08:26:43.980Z,5656
2018-03-19T08:27:43.968Z,5668
2018-03-19T08:28:43.960Z,5648
2018-03-19T08:29:43.947Z,5644
2018-03-19T08:30:43.681Z,5636
2018-03-19T08:31:43.912Z,5656
2018-03-19T08:32:43.905Z,5648
2018-03-19T08:33:43.889Z,5648
2018-03-19T08:34:43.897Z,5648
2018-03-19T08:35:43.866Z,5616
2018-03-19T08:36:43.855Z,5612
2018-03-19T08:37:43.838Z,5636
2018-03-19T08:38:43.566Z,5636
2018-03-19T08:39:43.872Z,5624
2018-03-19T08:40:43.836Z,5640
2018-03-19T08:41:43.881Z,5636
2018-03-19T08:42:44.500Z,5612
2018-03-19T08:43:43.501Z,5616
2018-03-19T08:44:43.738Z,5600
2018-03-19T08:45:43.538Z,5572
2018-03-19T08:46:43.724Z,5552
2018-03-19T08:47:43.708Z,5568
2018-03-19T08:48:43.714Z,5572
2018-03-19T08:49:43.443Z,5560
2018-03-19T08:50:43.403Z,5572
2018-03-19T08:51:43.694Z,5560
2018-03-19T08:52:43.112Z,5528
2018-03-19T08:53:43.624Z,5496
2018-03-19T08:54:43.602Z,5416
2018-03-19T08:55:43.627Z,5348
2018-03-19T08:56:43.563Z,5332
2018-03-19T08:57:43.555Z,5308
2018-03-19T08:58:43.290Z,5304
2018-03-19T08:59:43.526Z,5324
2018-03-19T09:00:43.498Z,5364
2018-03-19T09:01:43.513Z,5396
2018-03-19T09:02:43.544Z,5352
2018-03-19T09:03:43.462Z,5344
2018-03-19T09:04:43.212Z,5332
2018-03-19T09:05:43.460Z,5312
2018-03-19T09:06:43.193Z,5316
2018-03-19T09:07:43.426Z,5312
2018-03-19T09:08:43.142Z,5276
2018-03-19T09:09:43.384Z,5276
2018-03-19T09:10:43.370Z,5236
2018-03-19T09:11:43.351Z,5216
2018-03-19T09:12:43.193Z,5216
2018-03-19T09:13:43.366Z,5184
2018-03-19T09:14:43.034Z,5164
2018-03-19T09:15:43.328Z,5156
2018-03-19T09:16:43.026Z,5180
2018-03-19T09:17:43.312Z,5180
2018-03-19T09:18:42.992Z,5200
2018-03-19T09:19:42.504Z,5208
2018-03-19T09:20:43.207Z,5188
2018-03-19T09:21:43.192Z,5188
2018-03-19T09:22:43.180Z,5172
2018-03-19T09:23:43.168Z,5172
2018-03-19T09:24:43.159Z,5180
2018-03-19T09:25:43.156Z,5172
2018-03-19T09:26:43.114Z,5160
2018-03-19T09:27:42.838Z,5160
2018-03-19T09:28:43.104Z,5160
2018-03-19T09:29:43.085Z,5156
2018-03-19T09:30:43.138Z,5160
2018-03-19T09:31:42.573Z,5172
2018-03-19T09:32:42.563Z,5152
2018-03-19T09:33:43.071Z,5116
2018-03-19T09:34:43.123Z,5100
2018-03-19T09:35:42.512Z,5100
2018-03-19T09:36:43.168Z,5128
2018-03-19T09:37:42.952Z,5108
2018-03-19T09:38:42.941Z,5092
2018-03-19T09:39:42.912Z,5088
2018-03-19T09:40:42.930Z,5060
2018-03-19T09:41:43.071Z,5072
2018-03-19T09:42:42.416Z,5096
2018-03-19T09:43:42.888Z,5112
2018-03-19T09:44:42.653Z,5120
2018-03-19T09:45:42.584Z,5116
2018-03-19T09:46:42.581Z,5112
2018-03-19T09:47:42.834Z,5116
2018-03-19T09:48:42.851Z,5112
2018-03-19T09:49:42.527Z,5092
2018-03-19T09:50:43.063Z,5064
2018-03-19T09:51:42.847Z,5036
2018-03-19T09:52:42.766Z,5020
2018-03-19T09:53:42.215Z,5040
2018-03-19T09:54:42.620Z,5032
2018-03-19T09:55:42.451Z,5024
2018-03-19T09:56:42.666Z,5032
2018-03-19T09:57:42.711Z,5036
2018-03-19T09:58:42.413Z,5024
2018-03-19T09:59:42.401Z,5016
2018-03-19T10:00:42.635Z,5008
2018-03-19T10:01:42.623Z,4988
2018-03-19T10:02:42.406Z,4952
2018-03-19T10:03:42.554Z,4932
2018-03-19T10:04:42.546Z,4932
2018-03-19T10:05:42.279Z,4936
2018-03-19T10:06:42.413Z,4936
2018-03-19T10:07:42.245Z,4928
2018-03-19T10:08:42.257Z,4916
2018-03-19T10:09:42.215Z,4900
2018-03-19T10:10:42.480Z,4892
2018-03-19T10:11:42.450Z,4892
2018-03-19T10:12:42.460Z,4876
2018-03-19T10:13:42.457Z,4888
2018-03-19T10:14:41.894Z,4892
2018-03-19T10:15:42.397Z,4888
2018-03-19T10:16:42.395Z,4880
2018-03-19T10:17:42.106Z,4876
2018-03-19T10:18:42.357Z,4868
2018-03-19T10:19:42.317Z,4848
2018-03-19T10:20:41.804Z,4824
2018-03-19T10:21:42.432Z,4816
2018-03-19T10:22:42.287Z,4800
2018-03-19T10:23:42.032Z,4792
2018-03-19T10:24:42.284Z,4776
2018-03-19T10:25:42.240Z,4780
2018-03-19T10:26:42.260Z,4784
2018-03-19T10:27:42.033Z,4784
2018-03-19T10:28:42.199Z,4776
2018-03-19T10:29:41.934Z,4760
2018-03-19T10:30:42.181Z,4756
2018-03-19T10:31:41.899Z,4752
2018-03-19T10:32:42.162Z,4740
2018-03-19T10:33:42.120Z,4724
2018-03-19T10:34:42.107Z,4716
2018-03-19T10:35:41.826Z,4688
2018-03-19T10:36:42.066Z,4656
2018-03-19T10:37:41.818Z,4632
2018-03-19T10:38:42.189Z,4620
2018-03-19T10:39:42.033Z,4616
2018-03-19T10:40:42.015Z,4620
2018-03-19T10:41:42.271Z,4620
2018-03-19T10:42:41.986Z,4600
2018-03-19T10:43:41.967Z,4580
2018-03-19T10:44:41.445Z,4556
2018-03-19T10:45:41.941Z,4536
2018-03-19T10:46:41.921Z,4540
2018-03-19T10:47:41.921Z,4528
2018-03-19T10:48:41.931Z,4520
2018-03-19T10:49:41.881Z,4516
2018-03-19T10:50:41.865Z,4524
2018-03-19T10:51:41.876Z,4532
2018-03-19T10:52:41.867Z,4528
2018-03-19T10:53:41.825Z,4520
2018-03-19T10:54:41.809Z,4512
2018-03-19T10:55:41.796Z,4508
2018-03-19T10:56:41.524Z,4508
2018-03-19T10:57:41.765Z,4504
2018-03-19T10:58:41.236Z,4508
2018-03-19T10:59:41.741Z,4500
2018-03-19T11:00:41.747Z,4484
2018-03-19T11:01:41.451Z,4468
2018-03-19T11:02:41.229Z,4468
2018-03-19T11:03:41.436Z,4460
2018-03-19T11:04:41.699Z,4436
2018-03-19T11:05:41.874Z,4416
2018-03-19T11:06:41.663Z,4400
2018-03-19T11:07:41.655Z,4400
2018-03-19T11:08:41.378Z,4396
2018-03-19T11:09:41.640Z,4388
2018-03-19T11:10:41.340Z,4392
2018-03-19T11:11:41.568Z,4384
2018-03-19T11:12:41.807Z,4364
2018-03-19T11:13:41.286Z,4344
2018-03-19T11:14:41.523Z,4308
2018-03-19T11:15:41.514Z,4268
2018-03-19T11:16:41.495Z,4260
2018-03-19T11:17:41.518Z,4264
2018-03-19T11:18:41.499Z,4268
2018-03-19T11:19:41.459Z,4280
2018-03-19T11:20:41.639Z,4296
2018-03-19T11:21:41.424Z,4300
2018-03-19T11:22:41.432Z,4304
2018-03-19T11:23:41.407Z,4308
2018-03-19T11:24:41.407Z,4312
2018-03-19T11:25:41.380Z,4304
2018-03-19T11:26:41.376Z,4276
2018-03-19T11:27:41.359Z,4256
2018-03-19T11:28:41.099Z,4260
2018-03-19T11:29:41.321Z,4268
2018-03-19T11:30:41.300Z,4268
2018-03-19T11:31:41.281Z,4264
2018-03-19T11:32:41.024Z,4256
2018-03-19T11:33:41.024Z,4244
2018-03-19T11:34:41.008Z,4224
2018-03-19T11:35:40.995Z,4204
2018-03-19T11:36:41.328Z,4196
2018-03-19T11:37:41.242Z,4200
2018-03-19T11:38:41.222Z,4204
2018-03-19T11:39:41.172Z,4204
2018-03-19T11:40:41.411Z,4200
2018-03-19T11:41:41.154Z,4196
2018-03-19T11:42:41.158Z,4200
2018-03-19T11:43:41.148Z,4204
2018-03-19T11:44:41.154Z,4204
2018-03-19T11:45:40.840Z,4204
2018-03-19T11:46:41.083Z,4200
2018-03-19T11:47:41.111Z,4196
2018-03-19T11:48:41.055Z,4196
2018-03-19T11:49:41.036Z,4192
2018-03-19T11:50:40.820Z,4176
2018-03-19T11:51:41.018Z,4172
2018-03-19T11:52:41.007Z,4184
2018-03-19T11:53:40.736Z,4172
2018-03-19T11:54:40.967Z,4160
2018-03-19T11:55:40.996Z,4160
2018-03-19T11:56:40.946Z,4156
2018-03-19T11:57:40.920Z,4152
2018-03-19T11:58:40.650Z,4164
2018-03-19T11:59:40.901Z,4160
2018-03-19T12:00:40.939Z,4156
2018-03-19T12:01:40.864Z,4152
2018-03-19T12:02:40.857Z,4144
2018-03-19T12:03:40.875Z,4136
2018-03-19T12:04:40.824Z,4128
2018-03-19T12:05:40.578Z,4132
2018-03-19T12:06:40.807Z,4124
2018-03-19T12:07:40.795Z,4124
2018-03-19T12:08:40.518Z,4128
2018-03-19T12:09:40.754Z,4132
2018-03-19T12:10:40.741Z,4132
2018-03-19T12:11:40.723Z,4132
2018-03-19T12:12:40.714Z,4128
2018-03-19T12:13:40.714Z,4124
2018-03-19T12:14:40.700Z,4120
2018-03-19T12:15:40.419Z,4116
2018-03-19T12:16:40.657Z,4116
2018-03-19T12:17:40.645Z,4112
2018-03-19T12:18:40.636Z,4104
2018-03-19T12:19:40.635Z,4092
2018-03-19T12:20:40.596Z,4088
2018-03-19T12:21:40.615Z,4076
2018-03-19T12:22:40.580Z,4064
2018-03-19T12:23:40.553Z,4060
2018-03-19T12:24:40.301Z,4052
2018-03-19T12:25:40.549Z,4052
2018-03-19T12:26:40.010Z,4052
2018-03-19T12:27:40.514Z,4056
2018-03-19T12:28:40.501Z,4060
2018-03-19T12:29:40.493Z,4052
2018-03-19T12:30:40.210Z,4056
2018-03-19T12:31:40.204Z,4052
2018-03-19T12:32:39.928Z,4060
2018-03-19T12:33:40.441Z,4060
2018-03-19T12:34:40.424Z,4056
2018-03-19T12:35:40.408Z,4044
2018-03-19T12:36:40.389Z,4044
2018-03-19T12:37:40.126Z,4052
2018-03-19T12:38:40.121Z,4048
2018-03-19T12:39:40.086Z,4040
2018-03-19T12:40:40.336Z,4040
2018-03-19T12:41:40.063Z,4040
2018-03-19T12:42:40.053Z,4036
2018-03-19T12:43:40.301Z,4040
2018-03-19T12:44:40.269Z,4040
2018-03-19T12:45:40.265Z,4032
2018-03-19T12:46:40.508Z,4028
2018-03-19T12:47:40.023Z,4028
2018-03-19T12:48:39.967Z,4024
2018-03-19T12:49:39.962Z,4012
2018-03-19T12:50:39.934Z,4008
2018-03-19T12:51:39.931Z,3996
2018-03-19T12:52:40.166Z,3984
2018-03-19T12:53:39.898Z,3980
2018-03-19T13:01:40.061Z,3956
2018-03-19T13:02:40.060Z,3952
2018-03-19T13:03:40.050Z,3952
2018-03-19T13:04:40.015Z,3952
2018-03-19T13:05:40.004Z,3952
2018-03-19T13:06:40.009Z,3948
2018-03-19T13:07:40.186Z,3952
2018-03-19T13:08:39.696Z,3956
2018-03-19T13:09:39.938Z,3952
2018-03-19T13:10:40.019Z,3960
2018-03-19T13:11:39.922Z,3956
2018-03-19T13:12:39.674Z,3956
2018-03-19T13:13:39.679Z,3956
2018-03-19T13:14:39.915Z,3956
2018-03-19T13:15:39.890Z,3960
2018-03-19T13:16:40.135Z,3956
2018-03-19T13:17:39.832Z,3956
2018-03-19T13:18:39.888Z,3956
2018-03-19T13:19:39.813Z,3956
2018-03-19T13:20:39.843Z,3956
2018-03-19T13:21:39.790Z,3948
2018-03-19T13:22:39.763Z,3952
2018-03-19T13:23:39.849Z,3956
2018-03-19T13:24:39.862Z,3956
2018-03-19T13:25:39.727Z,3960
2018-03-19T13:26:39.715Z,3960
2018-03-19T13:27:39.711Z,3964
2018-03-19T13:28:39.698Z,3964
2018-03-19T13:29:39.682Z,3960
2018-03-19T13:30:39.675Z,3964
2018-03-19T13:31:39.402Z,3964
2018-03-19T13:32:39.636Z,3964
2018-03-19T13:33:39.367Z,3960
2018-03-19T13:34:39.617Z,3964
2018-03-19T13:45:42.248Z,3984
2018-03-19T13:46:39.467Z,3980
2018-03-19T13:47:39.453Z,3976
2018-03-19T13:48:39.457Z,3968
2018-03-19T13:49:39.160Z,3972
2018-03-19T13:50:39.407Z,3968
2018-03-19T13:51:39.409Z,3968
2018-03-19T13:52:39.392Z,3964
2018-03-19T13:53:39.240Z,3960
2018-03-19T13:54:39.364Z,3960
2018-03-19T13:55:39.383Z,3956
2018-03-19T13:56:39.342Z,3952
2018-03-19T13:57:39.315Z,3952
2018-03-19T13:58:39.322Z,3948
2018-03-19T13:59:39.291Z,3948
2018-03-19T14:00:39.276Z,3948
2018-03-19T14:01:39.014Z,3952
2018-03-19T14:02:39.250Z,3956